Impacts METAR Board INFO
IDs:

KCVG - Cincinnati Intl, KY, US

Updated at: 0825 UTC 22 Jan 2018
Potential Impact None Slight Moderate High
Time21/20Z 21/21Z 21/22Z 21/23Z 22/00Z 22/01Z 22/02Z 22/03Z 22/04Z 22/05Z 22/06Z 22/07Z 22/08Z
VIS10 10 10 10 10 10 10 10 10 10 10 10 10
CIG20 29 30 26 18 20 22 30 100 45 100 100 100
CoverOVCOVCOVCOVCOVCOVCOVCOVCOVCOVCOVCOVCOVC
FltCatMVFRMVFRMVFRMVFRMVFRMVFRMVFRMVFRVFRVFRVFRVFRVFR
WX--------------------------
WDir210180190180190170150180190170190180180
WSpd9 10 10 9 7 6 5 5 6 7 7 8 8
WGst16 -- -- -- -- -- -- -- -- -- -- -- --
Raw hourly METARs
KCVG 211952Z 21009G16KT 10SM BKN020 OVC030 13/09 A3004 RMK AO2 SLP169 T01280094 $
KCVG 212052Z 18010KT 10SM OVC029 13/10 A3003 RMK AO2 SLP168 T01280100 56010 $
KCVG 212152Z 19010KT 10SM FEW015 OVC030 12/10 A3004 RMK AO2 SLP171 T01220100 $
KCVG 212252Z 18009KT 10SM FEW013 OVC026 12/11 A3004 RMK AO2 SLP171 T01170106 $
KCVG 212352Z 19007KT 10SM BKN018 OVC023 12/11 A3004 RMK AO2 SLP172 T01170106 10133 20117 53000 $
KCVG 220052Z 17006KT 10SM OVC020 11/11 A3004 RMK AO2 SLP170 T01110106 $
KCVG 220152Z 15005KT 10SM OVC022 11/10 A3003 RMK AO2 SLP169 T01110100 $
KCVG 220252Z 18005KT 10SM OVC030 11/11 A3003 RMK AO2 SLP167 T01110106 57004 $
KCVG 220352Z 19006KT 10SM FEW035 FEW045 OVC100 11/10 A3002 RMK AO2 SLP162 T01110100 $
KCVG 220452Z 17007KT 10SM BKN045 OVC100 10/09 A3000 RMK AO2 SLP156 BINOVC T01000094 401330067 $
KCVG 220552Z 19007KT 10SM BKN100 OVC200 11/09 A2999 RMK AO2 SLP151 BINOVC T01060094 10122 20094 56015 $
KCVG 220652Z 18008KT 10SM BKN100 OVC200 10/08 A2996 RMK AO2 SLP143 T01000083 $
KCVG 220752Z 18008KT 10SM OVC100 11/08 A2995 RMK AO2 SLP139 T01110083 $